sensor_id;sensor_type;location;lat;lon;timestamp;P1;durP1;ratioP1;P2;durP2;ratioP2
68921;SDS011;55959;51.244;5.724;2023-05-19T00:01:30;7.83;;;4.67;;
68921;SDS011;55959;51.244;5.724;2023-05-19T00:03:57;5.40;;;4.80;;
68921;SDS011;55959;51.244;5.724;2023-05-19T00:06:27;4.90;;;4.43;;
68921;SDS011;55959;51.244;5.724;2023-05-19T00:11:25;5.47;;;4.40;;
68921;SDS011;55959;51.244;5.724;2023-05-19T00:13:53;5.27;;;4.23;;
68921;SDS011;55959;51.244;5.724;2023-05-19T00:16:22;5.53;;;4.33;;
68921;SDS011;55959;51.244;5.724;2023-05-19T00:18:49;5.20;;;4.50;;
68921;SDS011;55959;51.244;5.724;2023-05-19T00:21:15;5.00;;;4.40;;
68921;SDS011;55959;51.244;5.724;2023-05-19T00:23:41;5.07;;;4.50;;
68921;SDS011;55959;51.244;5.724;2023-05-19T00:26:07;4.23;;;3.80;;
68921;SDS011;55959;51.244;5.724;2023-05-19T00:28:33;8.33;;;5.30;;
68921;SDS011;55959;51.244;5.724;2023-05-19T00:30:59;8.37;;;5.40;;
68921;SDS011;55959;51.244;5.724;2023-05-19T00:33:26;6.57;;;5.03;;
68921;SDS011;55959;51.244;5.724;2023-05-19T00:35:52;6.90;;;4.50;;
68921;SDS011;55959;51.244;5.724;2023-05-19T00:38:17;6.17;;;4.23;;
68921;SDS011;55959;51.244;5.724;2023-05-19T00:40:43;5.00;;;4.50;;
68921;SDS011;55959;51.244;5.724;2023-05-19T00:43:09;5.00;;;4.17;;
68921;SDS011;55959;51.244;5.724;2023-05-19T00:45:35;7.33;;;4.60;;
68921;SDS011;55959;51.244;5.724;2023-05-19T00:48:01;6.50;;;3.93;;
68921;SDS011;55959;51.244;5.724;2023-05-19T00:50:26;4.77;;;3.97;;
68921;SDS011;55959;51.244;5.724;2023-05-19T00:52:54;5.87;;;4.33;;
68921;SDS011;55959;51.244;5.724;2023-05-19T00:55:24;9.23;;;5.13;;
68921;SDS011;55959;51.244;5.724;2023-05-19T00:57:52;7.33;;;4.60;;
68921;SDS011;55959;51.244;5.724;2023-05-19T01:00:20;5.80;;;4.27;;
68921;SDS011;55959;51.244;5.724;2023-05-19T01:02:46;7.03;;;5.00;;
68921;SDS011;55959;51.244;5.724;2023-05-19T01:05:14;6.07;;;4.40;;
68921;SDS011;55959;51.244;5.724;2023-05-19T01:07:41;5.93;;;4.60;;
68921;SDS011;55959;51.244;5.724;2023-05-19T01:10:07;4.60;;;4.17;;
68921;SDS011;55959;51.244;5.724;2023-05-19T01:12:34;5.00;;;3.90;;
68921;SDS011;55959;51.244;5.724;2023-05-19T01:15:01;6.87;;;4.43;;
68921;SDS011;55959;51.244;5.724;2023-05-19T01:17:30;6.20;;;4.80;;
68921;SDS011;55959;51.244;5.724;2023-05-19T01:20:35;5.83;;;4.20;;
68921;SDS011;55959;51.244;5.724;2023-05-19T01:31:36;5.93;;;4.17;;
68921;SDS011;55959;51.244;5.724;2023-05-19T01:34:04;7.83;;;5.00;;
68921;SDS011;55959;51.244;5.724;2023-05-19T01:36:31;6.00;;;4.40;;
68921;SDS011;55959;51.244;5.724;2023-05-19T01:38:58;4.83;;;3.73;;
68921;SDS011;55959;51.244;5.724;2023-05-19T01:41:26;4.13;;;3.73;;
68921;SDS011;55959;51.244;5.724;2023-05-19T01:43:53;7.80;;;4.50;;
68921;SDS011;55959;51.244;5.724;2023-05-19T01:46:21;6.17;;;4.27;;
68921;SDS011;55959;51.244;5.724;2023-05-19T01:48:48;4.60;;;3.83;;
68921;SDS011;55959;51.244;5.724;2023-05-19T01:51:14;6.03;;;4.30;;
68921;SDS011;55959;51.244;5.724;2023-05-19T01:53:40;5.13;;;3.87;;
68921;SDS011;55959;51.244;5.724;2023-05-19T01:56:05;6.87;;;3.67;;
68921;SDS011;55959;51.244;5.724;2023-05-19T01:58:45;5.93;;;3.60;;
68921;SDS011;55959;51.244;5.724;2023-05-19T02:01:23;6.20;;;3.93;;
68921;SDS011;55959;51.244;5.724;2023-05-19T02:07:19;6.77;;;3.57;;
68921;SDS011;55959;51.244;5.724;2023-05-19T02:10:18;6.47;;;3.83;;
68921;SDS011;55959;51.244;5.724;2023-05-19T02:12:52;5.23;;;3.63;;
68921;SDS011;55959;51.244;5.724;2023-05-19T02:15:27;4.77;;;3.80;;
68921;SDS011;55959;51.244;5.724;2023-05-19T02:17:59;4.93;;;3.43;;
68921;SDS011;55959;51.244;5.724;2023-05-19T02:20:28;6.43;;;4.00;;
68921;SDS011;55959;51.244;5.724;2023-05-19T02:22:55;4.57;;;3.67;;
68921;SDS011;55959;51.244;5.724;2023-05-19T02:25:21;4.10;;;3.27;;
68921;SDS011;55959;51.244;5.724;2023-05-19T02:27:48;4.70;;;3.70;;
68921;SDS011;55959;51.244;5.724;2023-05-19T02:30:15;3.97;;;3.20;;
68921;SDS011;55959;51.244;5.724;2023-05-19T02:32:41;5.17;;;3.63;;
68921;SDS011;55959;51.244;5.724;2023-05-19T02:35:10;5.10;;;3.37;;
68921;SDS011;55959;51.244;5.724;2023-05-19T02:37:37;3.67;;;3.07;;
68921;SDS011;55959;51.244;5.724;2023-05-19T02:40:03;4.57;;;3.30;;
68921;SDS011;55959;51.244;5.724;2023-05-19T02:42:30;5.33;;;3.27;;
68921;SDS011;55959;51.244;5.724;2023-05-19T02:44:56;4.43;;;3.10;;
68921;SDS011;55959;51.244;5.724;2023-05-19T02:47:21;4.90;;;3.47;;
68921;SDS011;55959;51.244;5.724;2023-05-19T02:49:47;5.43;;;3.40;;
68921;SDS011;55959;51.244;5.724;2023-05-19T02:52:13;5.83;;;3.53;;
68921;SDS011;55959;51.244;5.724;2023-05-19T02:54:39;6.23;;;3.47;;
68921;SDS011;55959;51.244;5.724;2023-05-19T02:57:04;3.40;;;2.93;;
68921;SDS011;55959;51.244;5.724;2023-05-19T02:59:30;4.33;;;2.97;;
68921;SDS011;55959;51.244;5.724;2023-05-19T03:02:00;6.30;;;3.13;;
68921;SDS011;55959;51.244;5.724;2023-05-19T03:04:26;4.83;;;3.23;;
68921;SDS011;55959;51.244;5.724;2023-05-19T03:06:53;4.07;;;3.00;;
68921;SDS011;55959;51.244;5.724;2023-05-19T03:09:19;5.23;;;3.30;;
68921;SDS011;55959;51.244;5.724;2023-05-19T03:11:47;5.83;;;3.10;;
68921;SDS011;55959;51.244;5.724;2023-05-19T03:14:14;5.90;;;3.60;;
68921;SDS011;55959;51.244;5.724;2023-05-19T03:16:40;4.80;;;3.17;;
68921;SDS011;55959;51.244;5.724;2023-05-19T03:19:06;3.40;;;2.70;;
68921;SDS011;55959;51.244;5.724;2023-05-19T03:21:32;5.43;;;3.03;;
68921;SDS011;55959;51.244;5.724;2023-05-19T03:23:59;4.80;;;3.03;;
68921;SDS011;55959;51.244;5.724;2023-05-19T03:26:26;3.67;;;3.20;;
68921;SDS011;55959;51.244;5.724;2023-05-19T03:28:53;5.97;;;3.37;;
68921;SDS011;55959;51.244;5.724;2023-05-19T03:31:19;4.20;;;3.60;;
68921;SDS011;55959;51.244;5.724;2023-05-19T03:33:46;5.13;;;3.37;;
68921;SDS011;55959;51.244;5.724;2023-05-19T03:36:12;3.97;;;2.90;;
68921;SDS011;55959;51.244;5.724;2023-05-19T03:38:38;4.20;;;2.87;;
68921;SDS011;55959;51.244;5.724;2023-05-19T03:41:04;3.23;;;2.93;;
68921;SDS011;55959;51.244;5.724;2023-05-19T03:43:30;4.40;;;3.40;;
68921;SDS011;55959;51.244;5.724;2023-05-19T03:45:55;4.40;;;3.27;;
68921;SDS011;55959;51.244;5.724;2023-05-19T03:48:21;4.00;;;3.17;;
68921;SDS011;55959;51.244;5.724;2023-05-19T03:50:47;4.73;;;3.33;;
68921;SDS011;55959;51.244;5.724;2023-05-19T03:53:13;5.50;;;3.13;;
68921;SDS011;55959;51.244;5.724;2023-05-19T03:55:39;4.93;;;3.00;;
68921;SDS011;55959;51.244;5.724;2023-05-19T03:58:05;3.90;;;3.20;;
68921;SDS011;55959;51.244;5.724;2023-05-19T04:00:31;4.20;;;3.20;;
68921;SDS011;55959;51.244;5.724;2023-05-19T04:02:56;5.23;;;2.93;;
68921;SDS011;55959;51.244;5.724;2023-05-19T04:05:24;3.53;;;3.20;;
68921;SDS011;55959;51.244;5.724;2023-05-19T04:07:50;5.37;;;3.60;;
68921;SDS011;55959;51.244;5.724;2023-05-19T04:10:16;4.13;;;3.10;;
68921;SDS011;55959;51.244;5.724;2023-05-19T04:12:43;4.90;;;3.40;;
68921;SDS011;55959;51.244;5.724;2023-05-19T04:15:09;4.27;;;3.30;;
68921;SDS011;55959;51.244;5.724;2023-05-19T04:17:36;5.37;;;3.13;;
68921;SDS011;55959;51.244;5.724;2023-05-19T04:20:02;5.67;;;3.37;;
68921;SDS011;55959;51.244;5.724;2023-05-19T04:22:30;3.97;;;3.20;;
68921;SDS011;55959;51.244;5.724;2023-05-19T04:24:56;5.90;;;3.77;;
68921;SDS011;55959;51.244;5.724;2023-05-19T04:27:22;6.50;;;4.47;;
68921;SDS011;55959;51.244;5.724;2023-05-19T04:29:48;5.47;;;4.17;;
68921;SDS011;55959;51.244;5.724;2023-05-19T04:32:14;4.37;;;3.50;;
68921;SDS011;55959;51.244;5.724;2023-05-19T04:34:41;6.07;;;3.97;;
68921;SDS011;55959;51.244;5.724;2023-05-19T04:37:11;4.30;;;3.90;;
68921;SDS011;55959;51.244;5.724;2023-05-19T04:39:38;4.63;;;3.70;;
68921;SDS011;55959;51.244;5.724;2023-05-19T04:42:08;6.57;;;4.43;;
68921;SDS011;55959;51.244;5.724;2023-05-19T04:44:35;6.27;;;4.63;;
68921;SDS011;55959;51.244;5.724;2023-05-19T04:47:07;6.93;;;4.77;;
68921;SDS011;55959;51.244;5.724;2023-05-19T04:49:36;7.33;;;5.00;;
68921;SDS011;55959;51.244;5.724;2023-05-19T04:52:05;6.97;;;4.23;;
68921;SDS011;55959;51.244;5.724;2023-05-19T04:54:34;6.77;;;4.83;;
68921;SDS011;55959;51.244;5.724;2023-05-19T04:57:01;6.13;;;4.23;;
68921;SDS011;55959;51.244;5.724;2023-05-19T04:59:28;5.97;;;4.77;;
68921;SDS011;55959;51.244;5.724;2023-05-19T05:01:53;5.60;;;4.10;;
68921;SDS011;55959;51.244;5.724;2023-05-19T05:04:20;6.93;;;4.60;;
68921;SDS011;55959;51.244;5.724;2023-05-19T05:06:47;8.93;;;5.73;;
68921;SDS011;55959;51.244;5.724;2023-05-19T05:09:13;6.60;;;5.37;;
68921;SDS011;55959;51.244;5.724;2023-05-19T05:11:40;5.60;;;5.00;;
68921;SDS011;55959;51.244;5.724;2023-05-19T05:14:07;7.80;;;5.47;;
68921;SDS011;55959;51.244;5.724;2023-05-19T05:16:33;6.53;;;5.00;;
68921;SDS011;55959;51.244;5.724;2023-05-19T05:19:00;10.43;;;5.57;;
68921;SDS011;55959;51.244;5.724;2023-05-19T05:21:27;6.10;;;4.57;;
68921;SDS011;55959;51.244;5.724;2023-05-19T05:23:53;6.03;;;4.67;;
68921;SDS011;55959;51.244;5.724;2023-05-19T05:26:20;4.50;;;4.03;;
68921;SDS011;55959;51.244;5.724;2023-05-19T05:28:48;5.63;;;4.40;;
68921;SDS011;55959;51.244;5.724;2023-05-19T05:31:14;5.00;;;4.50;;
68921;SDS011;55959;51.244;5.724;2023-05-19T05:33:41;6.00;;;4.53;;
68921;SDS011;55959;51.244;5.724;2023-05-19T05:36:07;6.00;;;4.80;;
68921;SDS011;55959;51.244;5.724;2023-05-19T05:38:33;9.43;;;5.50;;
68921;SDS011;55959;51.244;5.724;2023-05-19T05:41:00;5.87;;;4.43;;
68921;SDS011;55959;51.244;5.724;2023-05-19T05:43:27;4.83;;;4.27;;
68921;SDS011;55959;51.244;5.724;2023-05-19T05:45:53;5.87;;;4.53;;
68921;SDS011;55959;51.244;5.724;2023-05-19T05:48:20;6.17;;;5.20;;
68921;SDS011;55959;51.244;5.724;2023-05-19T05:50:47;5.50;;;4.33;;
68921;SDS011;55959;51.244;5.724;2023-05-19T05:53:18;5.40;;;4.40;;
68921;SDS011;55959;51.244;5.724;2023-05-19T05:55:45;6.27;;;4.83;;
68921;SDS011;55959;51.244;5.724;2023-05-19T05:58:12;8.90;;;5.77;;
68921;SDS011;55959;51.244;5.724;2023-05-19T06:00:39;6.07;;;4.80;;
68921;SDS011;55959;51.244;5.724;2023-05-19T06:03:09;6.20;;;4.37;;
68921;SDS011;55959;51.244;5.724;2023-05-19T06:05:35;6.53;;;4.20;;
68921;SDS011;55959;51.244;5.724;2023-05-19T06:08:02;5.73;;;4.47;;
68921;SDS011;55959;51.244;5.724;2023-05-19T06:10:28;7.17;;;4.10;;
68921;SDS011;55959;51.244;5.724;2023-05-19T06:12:54;6.63;;;4.90;;
68921;SDS011;55959;51.244;5.724;2023-05-19T06:15:20;5.40;;;4.32;;
68921;SDS011;55959;51.244;5.724;2023-05-19T06:17:47;7.70;;;4.82;;
68921;SDS011;55959;51.244;5.724;2023-05-19T06:20:13;5.03;;;4.50;;
68921;SDS011;55959;51.244;5.724;2023-05-19T06:22:39;5.38;;;4.72;;
68921;SDS011;55959;51.244;5.724;2023-05-19T06:25:05;6.93;;;5.30;;
68921;SDS011;55959;51.244;5.724;2023-05-19T06:27:33;6.07;;;4.68;;
68921;SDS011;55959;51.244;5.724;2023-05-19T06:29:59;6.72;;;4.63;;
68921;SDS011;55959;51.244;5.724;2023-05-19T06:32:25;6.68;;;5.35;;
68921;SDS011;55959;51.244;5.724;2023-05-19T06:34:53;5.25;;;4.40;;
68921;SDS011;55959;51.244;5.724;2023-05-19T06:37:22;5.07;;;4.57;;
68921;SDS011;55959;51.244;5.724;2023-05-19T06:39:49;5.22;;;4.60;;
68921;SDS011;55959;51.244;5.724;2023-05-19T06:42:17;6.00;;;4.80;;
68921;SDS011;55959;51.244;5.724;2023-05-19T06:44:50;5.65;;;4.38;;
68921;SDS011;55959;51.244;5.724;2023-05-19T06:47:17;5.70;;;4.85;;
68921;SDS011;55959;51.244;5.724;2023-05-19T06:49:43;8.70;;;5.30;;
68921;SDS011;55959;51.244;5.724;2023-05-19T06:52:10;6.65;;;4.80;;
68921;SDS011;55959;51.244;5.724;2023-05-19T06:54:36;6.45;;;4.40;;
68921;SDS011;55959;51.244;5.724;2023-05-19T06:57:02;5.40;;;3.50;;
68921;SDS011;55959;51.244;5.724;2023-05-19T06:59:28;6.40;;;4.28;;
68921;SDS011;55959;51.244;5.724;2023-05-19T07:01:54;5.50;;;4.28;;
68921;SDS011;55959;51.244;5.724;2023-05-19T07:04:20;5.22;;;4.40;;
68921;SDS011;55959;51.244;5.724;2023-05-19T07:06:45;4.70;;;4.07;;
68921;SDS011;55959;51.244;5.724;2023-05-19T07:09:11;6.57;;;4.43;;
68921;SDS011;55959;51.244;5.724;2023-05-19T07:11:37;4.93;;;4.03;;
68921;SDS011;55959;51.244;5.724;2023-05-19T07:14:03;6.90;;;4.38;;
68921;SDS011;55959;51.244;5.724;2023-05-19T07:16:29;5.40;;;4.18;;
68921;SDS011;55959;51.244;5.724;2023-05-19T07:18:55;5.78;;;4.63;;
68921;SDS011;55959;51.244;5.724;2023-05-19T07:21:20;7.15;;;4.57;;
68921;SDS011;55959;51.244;5.724;2023-05-19T07:23:46;8.23;;;4.60;;
68921;SDS011;55959;51.244;5.724;2023-05-19T07:26:12;7.32;;;4.47;;
68921;SDS011;55959;51.244;5.724;2023-05-19T07:28:38;6.97;;;4.50;;
68921;SDS011;55959;51.244;5.724;2023-05-19T07:31:03;5.38;;;4.35;;
68921;SDS011;55959;51.244;5.724;2023-05-19T07:33:29;5.60;;;4.18;;
68921;SDS011;55959;51.244;5.724;2023-05-19T07:35:55;6.30;;;4.97;;
68921;SDS011;55959;51.244;5.724;2023-05-19T07:38:21;6.85;;;4.25;;
68921;SDS011;55959;51.244;5.724;2023-05-19T07:40:46;4.93;;;3.85;;
68921;SDS011;55959;51.244;5.724;2023-05-19T07:43:12;4.65;;;3.40;;
68921;SDS011;55959;51.244;5.724;2023-05-19T07:45:38;4.10;;;3.60;;
68921;SDS011;55959;51.244;5.724;2023-05-19T07:48:04;4.50;;;3.63;;
68921;SDS011;55959;51.244;5.724;2023-05-19T07:50:30;7.50;;;4.32;;
68921;SDS011;55959;51.244;5.724;2023-05-19T07:52:56;4.88;;;3.50;;
68921;SDS011;55959;51.244;5.724;2023-05-19T07:55:23;6.32;;;3.97;;
68921;SDS011;55959;51.244;5.724;2023-05-19T07:57:50;5.68;;;3.72;;
68921;SDS011;55959;51.244;5.724;2023-05-19T08:00:16;5.32;;;3.40;;
68921;SDS011;55959;51.244;5.724;2023-05-19T08:02:42;5.22;;;3.63;;
68921;SDS011;55959;51.244;5.724;2023-05-19T08:05:08;6.38;;;3.70;;
68921;SDS011;55959;51.244;5.724;2023-05-19T08:07:35;7.13;;;3.50;;
68921;SDS011;55959;51.244;5.724;2023-05-19T08:10:01;6.53;;;3.47;;
68921;SDS011;55959;51.244;5.724;2023-05-19T08:12:27;5.13;;;3.65;;
68921;SDS011;55959;51.244;5.724;2023-05-19T08:14:53;4.55;;;3.20;;
68921;SDS011;55959;51.244;5.724;2023-05-19T08:17:19;4.50;;;3.25;;
68921;SDS011;55959;51.244;5.724;2023-05-19T08:19:45;3.25;;;2.55;;
68921;SDS011;55959;51.244;5.724;2023-05-19T08:22:11;3.80;;;2.65;;
68921;SDS011;55959;51.244;5.724;2023-05-19T08:24:37;4.55;;;2.70;;
68921;SDS011;55959;51.244;5.724;2023-05-19T08:27:04;4.88;;;2.80;;
68921;SDS011;55959;51.244;5.724;2023-05-19T08:29:30;3.97;;;2.80;;
68921;SDS011;55959;51.244;5.724;2023-05-19T08:31:56;3.92;;;2.35;;
68921;SDS011;55959;51.244;5.724;2023-05-19T08:34:22;4.30;;;2.63;;
68921;SDS011;55959;51.244;5.724;2023-05-19T08:36:48;4.80;;;2.60;;
68921;SDS011;55959;51.244;5.724;2023-05-19T08:39:14;5.78;;;2.33;;
68921;SDS011;55959;51.244;5.724;2023-05-19T08:41:42;5.10;;;2.15;;
68921;SDS011;55959;51.244;5.724;2023-05-19T08:44:08;4.35;;;2.20;;
68921;SDS011;55959;51.244;5.724;2023-05-19T08:46:33;5.00;;;2.10;;
68921;SDS011;55959;51.244;5.724;2023-05-19T08:49:04;5.18;;;2.15;;
68921;SDS011;55959;51.244;5.724;2023-05-19T08:51:56;4.75;;;1.90;;
68921;SDS011;55959;51.244;5.724;2023-05-19T08:54:28;3.25;;;1.80;;
68921;SDS011;55959;51.244;5.724;2023-05-19T08:57:03;3.78;;;1.65;;
68921;SDS011;55959;51.244;5.724;2023-05-19T08:59:30;4.32;;;1.98;;
68921;SDS011;55959;51.244;5.724;2023-05-19T09:01:57;4.68;;;1.65;;
68921;SDS011;55959;51.244;5.724;2023-05-19T09:04:24;4.15;;;1.67;;
68921;SDS011;55959;51.244;5.724;2023-05-19T09:06:52;4.05;;;1.85;;
68921;SDS011;55959;51.244;5.724;2023-05-19T09:09:18;3.97;;;1.40;;
68921;SDS011;55959;51.244;5.724;2023-05-19T09:11:47;3.72;;;1.50;;
68921;SDS011;55959;51.244;5.724;2023-05-19T09:14:12;5.82;;;1.52;;
68921;SDS011;55959;51.244;5.724;2023-05-19T09:16:38;3.97;;;1.63;;
68921;SDS011;55959;51.244;5.724;2023-05-19T09:19:04;2.85;;;1.70;;
68921;SDS011;55959;51.244;5.724;2023-05-19T09:21:37;3.25;;;1.75;;
68921;SDS011;55959;51.244;5.724;2023-05-19T09:24:03;5.18;;;1.90;;
68921;SDS011;55959;51.244;5.724;2023-05-19T09:26:40;3.83;;;1.63;;
68921;SDS011;55959;51.244;5.724;2023-05-19T09:29:16;3.42;;;1.50;;
68921;SDS011;55959;51.244;5.724;2023-05-19T09:31:52;4.93;;;2.15;;
68921;SDS011;55959;51.244;5.724;2023-05-19T09:34:24;3.60;;;1.92;;
68921;SDS011;55959;51.244;5.724;2023-05-19T09:36:51;4.82;;;1.92;;
68921;SDS011;55959;51.244;5.724;2023-05-19T09:39:18;6.13;;;1.65;;
68921;SDS011;55959;51.244;5.724;2023-05-19T09:41:52;4.13;;;1.60;;
68921;SDS011;55959;51.244;5.724;2023-05-19T09:46:56;3.78;;;1.50;;
68921;SDS011;55959;51.244;5.724;2023-05-19T09:49:23;4.05;;;1.80;;
68921;SDS011;55959;51.244;5.724;2023-05-19T09:51:57;4.57;;;2.03;;
68921;SDS011;55959;51.244;5.724;2023-05-19T09:54:26;6.45;;;2.55;;
68921;SDS011;55959;51.244;5.724;2023-05-19T09:56:57;3.42;;;1.85;;
68921;SDS011;55959;51.244;5.724;2023-05-19T09:59:23;3.95;;;1.60;;
68921;SDS011;55959;51.244;5.724;2023-05-19T10:01:53;7.47;;;2.10;;
68921;SDS011;55959;51.244;5.724;2023-05-19T10:04:21;4.88;;;2.13;;
68921;SDS011;55959;51.244;5.724;2023-05-19T10:06:49;3.30;;;1.50;;
68921;SDS011;55959;51.244;5.724;2023-05-19T10:09:19;4.72;;;1.70;;
68921;SDS011;55959;51.244;5.724;2023-05-19T10:11:51;4.68;;;1.83;;
68921;SDS011;55959;51.244;5.724;2023-05-19T10:14:22;5.32;;;1.90;;
68921;SDS011;55959;51.244;5.724;2023-05-19T10:16:50;3.10;;;1.70;;
68921;SDS011;55959;51.244;5.724;2023-05-19T10:19:20;3.92;;;2.03;;
68921;SDS011;55959;51.244;5.724;2023-05-19T10:21:49;4.72;;;1.60;;
68921;SDS011;55959;51.244;5.724;2023-05-19T10:24:16;4.15;;;2.25;;
68921;SDS011;55959;51.244;5.724;2023-05-19T10:26:44;3.33;;;1.90;;
68921;SDS011;55959;51.244;5.724;2023-05-19T10:29:26;2.53;;;1.73;;
68921;SDS011;55959;51.244;5.724;2023-05-19T10:31:54;3.90;;;1.83;;
68921;SDS011;55959;51.244;5.724;2023-05-19T10:34:47;4.90;;;1.73;;
68921;SDS011;55959;51.244;5.724;2023-05-19T10:43:42;3.80;;;2.13;;
68921;SDS011;55959;51.244;5.724;2023-05-19T10:46:16;4.68;;;1.80;;
68921;SDS011;55959;51.244;5.724;2023-05-19T10:48:43;3.88;;;2.22;;
68921;SDS011;55959;51.244;5.724;2023-05-19T10:51:10;4.05;;;2.10;;
68921;SDS011;55959;51.244;5.724;2023-05-19T10:53:39;3.95;;;2.30;;
68921;SDS011;55959;51.244;5.724;2023-05-19T10:56:10;5.05;;;2.30;;
68921;SDS011;55959;51.244;5.724;2023-05-19T10:58:37;4.43;;;2.25;;
68921;SDS011;55959;51.244;5.724;2023-05-19T11:03:44;4.38;;;2.17;;
68921;SDS011;55959;51.244;5.724;2023-05-19T11:06:25;3.33;;;1.92;;
68921;SDS011;55959;51.244;5.724;2023-05-19T11:08:58;4.60;;;2.20;;
68921;SDS011;55959;51.244;5.724;2023-05-19T11:11:42;4.38;;;2.35;;
68921;SDS011;55959;51.244;5.724;2023-05-19T11:14:18;4.70;;;2.10;;
68921;SDS011;55959;51.244;5.724;2023-05-19T11:16:51;4.70;;;2.40;;
68921;SDS011;55959;51.244;5.724;2023-05-19T11:19:28;4.57;;;2.85;;
68921;SDS011;55959;51.244;5.724;2023-05-19T11:21:56;5.25;;;3.17;;
68921;SDS011;55959;51.244;5.724;2023-05-19T11:24:36;4.85;;;3.55;;
68921;SDS011;55959;51.244;5.724;2023-05-19T11:27:20;5.40;;;2.38;;
68921;SDS011;55959;51.244;5.724;2023-05-19T11:32:44;5.55;;;2.10;;
68921;SDS011;55959;51.244;5.724;2023-05-19T11:35:13;5.57;;;1.95;;
68921;SDS011;55959;51.244;5.724;2023-05-19T11:37:40;3.15;;;2.03;;
68921;SDS011;55959;51.244;5.724;2023-05-19T11:40:07;4.00;;;2.10;;
68921;SDS011;55959;51.244;5.724;2023-05-19T11:42:33;3.80;;;1.83;;
68921;SDS011;55959;51.244;5.724;2023-05-19T11:45:01;4.35;;;2.92;;
68921;SDS011;55959;51.244;5.724;2023-05-19T11:47:29;2.72;;;1.90;;
68921;SDS011;55959;51.244;5.724;2023-05-19T11:49:57;4.63;;;2.08;;
68921;SDS011;55959;51.244;5.724;2023-05-19T11:52:24;4.97;;;2.10;;
68921;SDS011;55959;51.244;5.724;2023-05-19T11:54:51;7.53;;;2.75;;
68921;SDS011;55959;51.244;5.724;2023-05-19T11:57:17;2.90;;;1.63;;
68921;SDS011;55959;51.244;5.724;2023-05-19T11:59:43;5.78;;;2.08;;
68921;SDS011;55959;51.244;5.724;2023-05-19T12:04:48;4.60;;;2.10;;
68921;SDS011;55959;51.244;5.724;2023-05-19T12:07:14;5.00;;;2.03;;
68921;SDS011;55959;51.244;5.724;2023-05-19T12:09:45;4.75;;;2.28;;
68921;SDS011;55959;51.244;5.724;2023-05-19T12:12:14;3.03;;;1.90;;
68921;SDS011;55959;51.244;5.724;2023-05-19T12:14:42;4.40;;;2.55;;
68921;SDS011;55959;51.244;5.724;2023-05-19T12:17:14;3.28;;;2.05;;
68921;SDS011;55959;51.244;5.724;2023-05-19T12:19:44;4.90;;;2.50;;
68921;SDS011;55959;51.244;5.724;2023-05-19T12:22:14;4.72;;;2.13;;
68921;SDS011;55959;51.244;5.724;2023-05-19T12:24:41;4.32;;;1.92;;
68921;SDS011;55959;51.244;5.724;2023-05-19T12:29:47;4.22;;;2.22;;
68921;SDS011;55959;51.244;5.724;2023-05-19T12:32:16;5.90;;;2.05;;
68921;SDS011;55959;51.244;5.724;2023-05-19T12:34:42;3.83;;;1.70;;
68921;SDS011;55959;51.244;5.724;2023-05-19T12:37:09;3.25;;;1.90;;
68921;SDS011;55959;51.244;5.724;2023-05-19T12:39:35;6.05;;;2.35;;
68921;SDS011;55959;51.244;5.724;2023-05-19T12:42:02;4.93;;;1.92;;
68921;SDS011;55959;51.244;5.724;2023-05-19T12:44:41;4.60;;;2.42;;
68921;SDS011;55959;51.244;5.724;2023-05-19T12:47:16;4.68;;;2.20;;
68921;SDS011;55959;51.244;5.724;2023-05-19T12:52:32;4.05;;;2.03;;
68921;SDS011;55959;51.244;5.724;2023-05-19T12:55:07;4.82;;;2.30;;
68921;SDS011;55959;51.244;5.724;2023-05-19T12:57:36;3.08;;;1.90;;
68921;SDS011;55959;51.244;5.724;2023-05-19T13:00:07;2.58;;;1.60;;
68921;SDS011;55959;51.244;5.724;2023-05-19T13:02:54;2.92;;;1.90;;
68921;SDS011;55959;51.244;5.724;2023-05-19T13:05:26;4.32;;;2.25;;
68921;SDS011;55959;51.244;5.724;2023-05-19T13:10:22;3.85;;;1.70;;
68921;SDS011;55959;51.244;5.724;2023-05-19T13:12:55;6.72;;;2.20;;
68921;SDS011;55959;51.244;5.724;2023-05-19T13:15:22;6.28;;;2.20;;
68921;SDS011;55959;51.244;5.724;2023-05-19T13:17:50;4.18;;;2.33;;
68921;SDS011;55959;51.244;5.724;2023-05-19T13:20:17;3.92;;;2.10;;
68921;SDS011;55959;51.244;5.724;2023-05-19T13:22:44;3.75;;;1.77;;
68921;SDS011;55959;51.244;5.724;2023-05-19T13:25:14;4.30;;;2.03;;
68921;SDS011;55959;51.244;5.724;2023-05-19T13:27:40;4.80;;;2.17;;
68921;SDS011;55959;51.244;5.724;2023-05-19T13:30:08;4.50;;;1.77;;
68921;SDS011;55959;51.244;5.724;2023-05-19T13:32:34;4.63;;;2.05;;
68921;SDS011;55959;51.244;5.724;2023-05-19T13:35:00;3.90;;;1.95;;
68921;SDS011;55959;51.244;5.724;2023-05-19T13:37:26;2.80;;;1.45;;
68921;SDS011;55959;51.244;5.724;2023-05-19T13:39:52;5.68;;;2.58;;
68921;SDS011;55959;51.244;5.724;2023-05-19T13:42:18;4.47;;;1.80;;
68921;SDS011;55959;51.244;5.724;2023-05-19T13:44:44;3.63;;;1.80;;
68921;SDS011;55959;51.244;5.724;2023-05-19T13:47:11;3.72;;;1.75;;
68921;SDS011;55959;51.244;5.724;2023-05-19T13:49:37;3.42;;;1.80;;
68921;SDS011;55959;51.244;5.724;2023-05-19T13:52:03;3.08;;;1.73;;
68921;SDS011;55959;51.244;5.724;2023-05-19T13:54:31;4.57;;;2.20;;
68921;SDS011;55959;51.244;5.724;2023-05-19T13:56:57;5.15;;;2.00;;
68921;SDS011;55959;51.244;5.724;2023-05-19T13:59:24;4.53;;;1.55;;
68921;SDS011;55959;51.244;5.724;2023-05-19T14:01:50;4.30;;;1.88;;
68921;SDS011;55959;51.244;5.724;2023-05-19T14:04:16;2.30;;;1.63;;
68921;SDS011;55959;51.244;5.724;2023-05-19T14:06:42;3.92;;;2.42;;
68921;SDS011;55959;51.244;5.724;2023-05-19T14:09:08;3.45;;;2.05;;
68921;SDS011;55959;51.244;5.724;2023-05-19T14:11:34;3.75;;;1.83;;
68921;SDS011;55959;51.244;5.724;2023-05-19T14:14:00;2.78;;;1.73;;
68921;SDS011;55959;51.244;5.724;2023-05-19T14:16:27;5.40;;;2.00;;
68921;SDS011;55959;51.244;5.724;2023-05-19T14:18:54;4.63;;;1.95;;
68921;SDS011;55959;51.244;5.724;2023-05-19T14:21:20;2.63;;;1.67;;
68921;SDS011;55959;51.244;5.724;2023-05-19T14:23:46;3.00;;;1.60;;
68921;SDS011;55959;51.244;5.724;2023-05-19T14:26:12;3.75;;;1.80;;
68921;SDS011;55959;51.244;5.724;2023-05-19T14:28:38;3.17;;;1.85;;
68921;SDS011;55959;51.244;5.724;2023-05-19T14:31:05;2.63;;;1.80;;
68921;SDS011;55959;51.244;5.724;2023-05-19T14:33:37;3.65;;;2.05;;
68921;SDS011;55959;51.244;5.724;2023-05-19T14:36:04;4.90;;;1.92;;
68921;SDS011;55959;51.244;5.724;2023-05-19T14:38:31;2.88;;;1.98;;
68921;SDS011;55959;51.244;5.724;2023-05-19T14:40:57;4.40;;;1.75;;
68921;SDS011;55959;51.244;5.724;2023-05-19T14:43:23;8.02;;;1.80;;
68921;SDS011;55959;51.244;5.724;2023-05-19T14:45:48;5.18;;;2.08;;
68921;SDS011;55959;51.244;5.724;2023-05-19T14:48:14;4.15;;;1.73;;
68921;SDS011;55959;51.244;5.724;2023-05-19T14:50:40;3.25;;;1.73;;
68921;SDS011;55959;51.244;5.724;2023-05-19T14:53:06;4.45;;;1.80;;
68921;SDS011;55959;51.244;5.724;2023-05-19T14:55:31;3.30;;;1.70;;
68921;SDS011;55959;51.244;5.724;2023-05-19T14:57:57;3.42;;;1.95;;
68921;SDS011;55959;51.244;5.724;2023-05-19T15:00:23;2.85;;;1.67;;
68921;SDS011;55959;51.244;5.724;2023-05-19T15:02:50;5.40;;;1.90;;
68921;SDS011;55959;51.244;5.724;2023-05-19T15:05:21;3.50;;;1.92;;
68921;SDS011;55959;51.244;5.724;2023-05-19T15:07:49;4.45;;;1.95;;
68921;SDS011;55959;51.244;5.724;2023-05-19T15:10:18;3.40;;;1.90;;
68921;SDS011;55959;51.244;5.724;2023-05-19T15:12:44;3.45;;;1.48;;
68921;SDS011;55959;51.244;5.724;2023-05-19T15:15:10;2.58;;;1.60;;
68921;SDS011;55959;51.244;5.724;2023-05-19T15:17:36;5.97;;;2.22;;
68921;SDS011;55959;51.244;5.724;2023-05-19T15:20:02;9.48;;;1.95;;
68921;SDS011;55959;51.244;5.724;2023-05-19T15:22:29;4.15;;;2.03;;
68921;SDS011;55959;51.244;5.724;2023-05-19T15:24:54;4.10;;;1.88;;
68921;SDS011;55959;51.244;5.724;2023-05-19T15:27:21;4.07;;;2.00;;
68921;SDS011;55959;51.244;5.724;2023-05-19T15:29:46;5.38;;;1.70;;
68921;SDS011;55959;51.244;5.724;2023-05-19T15:32:12;6.03;;;2.30;;